aviador You're here:

KOVE Decoded Metar

OROVILLE in CA, USA
Report Time2018-01-18 20:53:00
UTC Time2018-01-18 21:39:28
Flight Rules mvfr MVFR
Wind180° at 09 kt
W.Decomp.*RWY 13: 7.5 kt HW 5.0 kt RCW
RWY 20: 7.3 kt HW 5.3 kt LCW
W.Rank180° ranks 6
Current wind is above 180° avg. (7.2)
Visibility8047 m
Phenomena:Light Rain
Mist
Clouds:Overcast 016 Hf
Expected CloudBase > 800 ft AGL from Temp-Dew spread
Ceiling1,600 ft
Temp13°C (ISA -2)
Dew Point11°C (88% RH)
AAT10.1°C
QNH1016 hPa
Density Alt72 ft
Elevation190 ft
Report Wrong Elevation
Raw Report
METAR KOVE 182053Z AUTO 18009KT 5SM -RA BR OVC016 13/11 A3000 RMK AO2
RAB25 SLP162 P0000 60000 T01280106 58026=

Extra information for KOVE:More info

Metar Taf Metar & Taf Last 4 Metars F.Rules Stats Wind Profile Meteogram Temp Stats Airport Information Weather charts Add Link Nearby VenuesMetar ALERT Operation Metar Decoded Social comments

AIRNAV info for KOVE